sensor_id;sensor_type;location;lat;lon;timestamp;P1;durP1;ratioP1;P2;durP2;ratioP2
47349;SDS011;33088;51.982;5.872;2023-04-01T00:00:25;7.55;;;5.15;;
47349;SDS011;33088;51.982;5.872;2023-04-01T00:02:50;14.65;;;5.43;;
47349;SDS011;33088;51.982;5.872;2023-04-01T00:05:16;9.15;;;3.95;;
47349;SDS011;33088;51.982;5.872;2023-04-01T00:07:42;11.40;;;3.83;;
47349;SDS011;33088;51.982;5.872;2023-04-01T00:10:09;9.85;;;4.78;;
47349;SDS011;33088;51.982;5.872;2023-04-01T00:12:35;9.27;;;4.47;;
47349;SDS011;33088;51.982;5.872;2023-04-01T00:15:03;5.72;;;3.83;;
47349;SDS011;33088;51.982;5.872;2023-04-01T00:17:30;5.50;;;3.78;;
47349;SDS011;33088;51.982;5.872;2023-04-01T00:19:56;10.30;;;4.70;;
47349;SDS011;33088;51.982;5.872;2023-04-01T00:22:22;7.68;;;5.00;;
47349;SDS011;33088;51.982;5.872;2023-04-01T00:24:49;8.02;;;4.40;;
47349;SDS011;33088;51.982;5.872;2023-04-01T00:32:43;8.05;;;6.30;;
47349;SDS011;33088;51.982;5.872;2023-04-01T00:35:08;9.63;;;5.93;;
47349;SDS011;33088;51.982;5.872;2023-04-01T00:37:36;13.77;;;6.13;;
47349;SDS011;33088;51.982;5.872;2023-04-01T00:40:03;12.55;;;7.88;;
47349;SDS011;33088;51.982;5.872;2023-04-01T00:42:30;11.80;;;7.63;;
47349;SDS011;33088;51.982;5.872;2023-04-01T00:44:56;11.40;;;8.32;;
47349;SDS011;33088;51.982;5.872;2023-04-01T00:47:23;19.77;;;7.68;;
47349;SDS011;33088;51.982;5.872;2023-04-01T00:49:51;9.10;;;7.15;;
47349;SDS011;33088;51.982;5.872;2023-04-01T00:52:20;12.68;;;7.95;;
47349;SDS011;33088;51.982;5.872;2023-04-01T00:54:49;13.30;;;9.15;;
47349;SDS011;33088;51.982;5.872;2023-04-01T00:57:25;13.40;;;9.45;;
47349;SDS011;33088;51.982;5.872;2023-04-01T01:00:07;15.32;;;11.20;;
47349;SDS011;33088;51.982;5.872;2023-04-01T01:02:35;20.10;;;11.05;;
47349;SDS011;33088;51.982;5.872;2023-04-01T01:05:01;13.38;;;10.75;;
47349;SDS011;33088;51.982;5.872;2023-04-01T01:10:17;24.45;;;15.07;;
47349;SDS011;33088;51.982;5.872;2023-04-01T01:15:57;21.67;;;15.13;;
47349;SDS011;33088;51.982;5.872;2023-04-01T01:18:58;23.52;;;16.45;;
47349;SDS011;33088;51.982;5.872;2023-04-01T01:21:49;22.95;;;16.25;;
47349;SDS011;33088;51.982;5.872;2023-04-01T01:24:50;25.52;;;15.55;;
47349;SDS011;33088;51.982;5.872;2023-04-01T01:27:31;20.17;;;16.08;;
47349;SDS011;33088;51.982;5.872;2023-04-01T01:35:37;23.13;;;15.97;;
47349;SDS011;33088;51.982;5.872;2023-04-01T01:38:15;26.55;;;18.05;;
47349;SDS011;33088;51.982;5.872;2023-04-01T01:40:49;26.88;;;18.33;;
47349;SDS011;33088;51.982;5.872;2023-04-01T01:43:21;25.13;;;17.52;;
47349;SDS011;33088;51.982;5.872;2023-04-01T01:45:55;26.70;;;17.52;;
47349;SDS011;33088;51.982;5.872;2023-04-01T01:48:26;27.80;;;17.73;;
47349;SDS011;33088;51.982;5.872;2023-04-01T01:50:54;28.23;;;19.27;;
47349;SDS011;33088;51.982;5.872;2023-04-01T01:53:20;34.10;;;17.05;;
47349;SDS011;33088;51.982;5.872;2023-04-01T01:55:47;28.38;;;16.75;;
47349;SDS011;33088;51.982;5.872;2023-04-01T01:58:15;22.63;;;14.82;;
47349;SDS011;33088;51.982;5.872;2023-04-01T02:01:00;26.73;;;12.32;;
47349;SDS011;33088;51.982;5.872;2023-04-01T02:03:30;20.50;;;11.10;;
47349;SDS011;33088;51.982;5.872;2023-04-01T02:05:59;28.10;;;11.38;;
47349;SDS011;33088;51.982;5.872;2023-04-01T02:09:09;20.20;;;11.25;;
47349;SDS011;33088;51.982;5.872;2023-04-01T02:11:18;26.15;;;10.88;;
47349;SDS011;33088;51.982;5.872;2023-04-01T02:17:27;32.13;;;12.07;;
47349;SDS011;33088;51.982;5.872;2023-04-01T02:19:29;33.28;;;9.85;;
47349;SDS011;33088;51.982;5.872;2023-04-01T02:22:03;21.27;;;9.77;;
47349;SDS011;33088;51.982;5.872;2023-04-01T02:24:32;30.27;;;11.00;;
47349;SDS011;33088;51.982;5.872;2023-04-01T02:27:02;23.13;;;9.80;;
47349;SDS011;33088;51.982;5.872;2023-04-01T02:29:29;23.77;;;9.95;;
47349;SDS011;33088;51.982;5.872;2023-04-01T02:31:57;40.25;;;12.52;;
47349;SDS011;33088;51.982;5.872;2023-04-01T02:34:24;23.60;;;11.02;;
47349;SDS011;33088;51.982;5.872;2023-04-01T02:36:50;29.67;;;12.63;;
47349;SDS011;33088;51.982;5.872;2023-04-01T02:39:17;28.65;;;11.15;;
47349;SDS011;33088;51.982;5.872;2023-04-01T02:41:43;33.67;;;11.75;;
47349;SDS011;33088;51.982;5.872;2023-04-01T02:44:11;21.23;;;9.38;;
47349;SDS011;33088;51.982;5.872;2023-04-01T02:46:38;24.83;;;10.07;;
47349;SDS011;33088;51.982;5.872;2023-04-01T02:49:04;25.20;;;8.50;;
47349;SDS011;33088;51.982;5.872;2023-04-01T02:51:30;22.27;;;9.13;;
47349;SDS011;33088;51.982;5.872;2023-04-01T02:53:56;17.13;;;8.82;;
47349;SDS011;33088;51.982;5.872;2023-04-01T02:56:22;19.02;;;9.20;;
47349;SDS011;33088;51.982;5.872;2023-04-01T02:58:47;16.98;;;10.07;;
47349;SDS011;33088;51.982;5.872;2023-04-01T03:01:13;22.92;;;10.43;;
47349;SDS011;33088;51.982;5.872;2023-04-01T03:03:39;17.30;;;10.52;;
47349;SDS011;33088;51.982;5.872;2023-04-01T03:06:09;15.35;;;8.65;;
47349;SDS011;33088;51.982;5.872;2023-04-01T03:08:40;18.60;;;9.15;;
47349;SDS011;33088;51.982;5.872;2023-04-01T03:11:06;15.23;;;9.73;;
47349;SDS011;33088;51.982;5.872;2023-04-01T03:13:34;22.92;;;11.23;;
47349;SDS011;33088;51.982;5.872;2023-04-01T03:16:00;16.55;;;9.50;;
47349;SDS011;33088;51.982;5.872;2023-04-01T03:18:25;15.23;;;8.65;;
47349;SDS011;33088;51.982;5.872;2023-04-01T03:20:51;17.13;;;10.15;;
47349;SDS011;33088;51.982;5.872;2023-04-01T03:23:17;9.85;;;8.10;;
47349;SDS011;33088;51.982;5.872;2023-04-01T03:25:47;13.27;;;8.95;;
47349;SDS011;33088;51.982;5.872;2023-04-01T03:28:14;11.18;;;8.20;;
47349;SDS011;33088;51.982;5.872;2023-04-01T03:30:39;12.32;;;9.00;;
47349;SDS011;33088;51.982;5.872;2023-04-01T03:33:05;11.38;;;8.85;;
47349;SDS011;33088;51.982;5.872;2023-04-01T03:35:31;10.40;;;8.30;;
47349;SDS011;33088;51.982;5.872;2023-04-01T03:37:57;16.45;;;9.77;;
47349;SDS011;33088;51.982;5.872;2023-04-01T03:40:23;12.30;;;9.77;;
47349;SDS011;33088;51.982;5.872;2023-04-01T03:42:51;22.17;;;12.30;;
47349;SDS011;33088;51.982;5.872;2023-04-01T03:45:17;11.18;;;9.20;;
47349;SDS011;33088;51.982;5.872;2023-04-01T03:47:43;14.38;;;9.73;;
47349;SDS011;33088;51.982;5.872;2023-04-01T03:50:08;13.57;;;11.43;;
47349;SDS011;33088;51.982;5.872;2023-04-01T03:52:35;17.35;;;9.68;;
47349;SDS011;33088;51.982;5.872;2023-04-01T03:55:01;15.98;;;10.55;;
47349;SDS011;33088;51.982;5.872;2023-04-01T03:57:27;15.90;;;11.02;;
47349;SDS011;33088;51.982;5.872;2023-04-01T03:59:56;14.10;;;9.77;;
47349;SDS011;33088;51.982;5.872;2023-04-01T04:02:22;14.98;;;10.32;;
47349;SDS011;33088;51.982;5.872;2023-04-01T04:04:48;13.18;;;10.07;;
47349;SDS011;33088;51.982;5.872;2023-04-01T04:07:13;16.55;;;11.48;;
47349;SDS011;33088;51.982;5.872;2023-04-01T04:09:57;16.40;;;10.73;;
47349;SDS011;33088;51.982;5.872;2023-04-01T04:12:23;13.68;;;10.75;;
47349;SDS011;33088;51.982;5.872;2023-04-01T04:14:48;17.25;;;12.75;;
47349;SDS011;33088;51.982;5.872;2023-04-01T04:17:14;14.88;;;11.18;;
47349;SDS011;33088;51.982;5.872;2023-04-01T04:19:42;18.13;;;12.40;;
47349;SDS011;33088;51.982;5.872;2023-04-01T04:22:08;16.33;;;12.30;;
47349;SDS011;33088;51.982;5.872;2023-04-01T04:24:34;23.88;;;14.68;;
47349;SDS011;33088;51.982;5.872;2023-04-01T04:27:06;26.25;;;14.48;;
47349;SDS011;33088;51.982;5.872;2023-04-01T04:29:32;26.35;;;15.68;;
47349;SDS011;33088;51.982;5.872;2023-04-01T04:31:59;22.70;;;14.93;;
47349;SDS011;33088;51.982;5.872;2023-04-01T04:34:25;19.23;;;13.60;;
47349;SDS011;33088;51.982;5.872;2023-04-01T04:36:51;16.23;;;12.80;;
47349;SDS011;33088;51.982;5.872;2023-04-01T04:39:17;19.48;;;13.88;;
47349;SDS011;33088;51.982;5.872;2023-04-01T04:41:44;19.73;;;13.52;;
47349;SDS011;33088;51.982;5.872;2023-04-01T04:44:10;23.42;;;15.15;;
47349;SDS011;33088;51.982;5.872;2023-04-01T04:46:36;19.65;;;13.73;;
47349;SDS011;33088;51.982;5.872;2023-04-01T04:49:10;25.45;;;14.70;;
47349;SDS011;33088;51.982;5.872;2023-04-01T04:51:36;20.98;;;13.55;;
47349;SDS011;33088;51.982;5.872;2023-04-01T04:54:03;24.10;;;16.73;;
47349;SDS011;33088;51.982;5.872;2023-04-01T04:56:52;22.27;;;14.63;;
47349;SDS011;33088;51.982;5.872;2023-04-01T04:59:19;24.30;;;15.30;;
47349;SDS011;33088;51.982;5.872;2023-04-01T05:02:03;20.15;;;14.98;;
47349;SDS011;33088;51.982;5.872;2023-04-01T05:04:28;25.73;;;16.88;;
47349;SDS011;33088;51.982;5.872;2023-04-01T05:06:54;30.75;;;18.52;;
47349;SDS011;33088;51.982;5.872;2023-04-01T05:09:20;20.90;;;16.80;;
47349;SDS011;33088;51.982;5.872;2023-04-01T05:11:46;33.65;;;18.85;;
47349;SDS011;33088;51.982;5.872;2023-04-01T05:14:13;23.38;;;16.95;;
47349;SDS011;33088;51.982;5.872;2023-04-01T05:16:47;23.52;;;16.30;;
47349;SDS011;33088;51.982;5.872;2023-04-01T05:19:12;21.30;;;16.48;;
47349;SDS011;33088;51.982;5.872;2023-04-01T05:21:40;24.75;;;16.58;;
47349;SDS011;33088;51.982;5.872;2023-04-01T05:24:10;30.02;;;17.40;;
47349;SDS011;33088;51.982;5.872;2023-04-01T05:26:53;26.45;;;14.93;;
47349;SDS011;33088;51.982;5.872;2023-04-01T05:29:39;24.50;;;15.15;;
47349;SDS011;33088;51.982;5.872;2023-04-01T05:32:09;25.15;;;13.40;;
47349;SDS011;33088;51.982;5.872;2023-04-01T05:34:38;25.17;;;14.50;;
47349;SDS011;33088;51.982;5.872;2023-04-01T05:37:17;15.55;;;11.90;;
47349;SDS011;33088;51.982;5.872;2023-04-01T05:39:50;11.40;;;9.13;;
47349;SDS011;33088;51.982;5.872;2023-04-01T05:42:15;13.85;;;10.57;;
47349;SDS011;33088;51.982;5.872;2023-04-01T05:44:41;14.57;;;9.50;;
47349;SDS011;33088;51.982;5.872;2023-04-01T05:47:07;11.27;;;7.88;;
47349;SDS011;33088;51.982;5.872;2023-04-01T05:49:33;12.20;;;8.00;;
47349;SDS011;33088;51.982;5.872;2023-04-01T05:51:59;12.65;;;9.45;;
47349;SDS011;33088;51.982;5.872;2023-04-01T05:54:25;11.68;;;7.93;;
47349;SDS011;33088;51.982;5.872;2023-04-01T05:56:51;15.10;;;9.20;;
47349;SDS011;33088;51.982;5.872;2023-04-01T05:59:18;15.32;;;9.48;;
47349;SDS011;33088;51.982;5.872;2023-04-01T06:01:44;25.85;;;11.70;;
47349;SDS011;33088;51.982;5.872;2023-04-01T06:04:14;19.60;;;11.82;;
47349;SDS011;33088;51.982;5.872;2023-04-01T06:06:41;22.27;;;12.13;;
47349;SDS011;33088;51.982;5.872;2023-04-01T06:28:30;31.33;;;15.77;;
47349;SDS011;33088;51.982;5.872;2023-04-01T06:31:14;25.73;;;13.55;;
47349;SDS011;33088;51.982;5.872;2023-04-01T06:54:21;28.35;;;11.65;;
47349;SDS011;33088;51.982;5.872;2023-04-01T07:00:14;15.50;;;9.50;;
47349;SDS011;33088;51.982;5.872;2023-04-01T07:02:48;18.85;;;9.23;;
47349;SDS011;33088;51.982;5.872;2023-04-01T07:05:21;14.68;;;8.60;;
47349;SDS011;33088;51.982;5.872;2023-04-01T07:07:48;16.55;;;8.00;;
47349;SDS011;33088;51.982;5.872;2023-04-01T07:11:02;12.52;;;8.13;;
47349;SDS011;33088;51.982;5.872;2023-04-01T07:14:19;13.73;;;6.65;;
47349;SDS011;33088;51.982;5.872;2023-04-01T07:19:52;8.95;;;5.45;;
47349;SDS011;33088;51.982;5.872;2023-04-01T07:22:30;9.00;;;5.77;;
47349;SDS011;33088;51.982;5.872;2023-04-01T07:25:27;10.20;;;4.75;;
47349;SDS011;33088;51.982;5.872;2023-04-01T07:28:18;5.68;;;3.97;;
47349;SDS011;33088;51.982;5.872;2023-04-01T07:33:55;5.22;;;3.72;;
47349;SDS011;33088;51.982;5.872;2023-04-01T07:39:37;6.15;;;3.88;;
47349;SDS011;33088;51.982;5.872;2023-04-01T07:53:51;2.60;;;2.40;;
47349;SDS011;33088;51.982;5.872;2023-04-01T08:02:14;7.03;;;3.55;;
47349;SDS011;33088;51.982;5.872;2023-04-01T08:04:54;5.13;;;3.67;;
47349;SDS011;33088;51.982;5.872;2023-04-01T08:13:58;5.50;;;3.75;;
47349;SDS011;33088;51.982;5.872;2023-04-01T08:17:05;4.95;;;3.03;;
47349;SDS011;33088;51.982;5.872;2023-04-01T08:19:46;3.42;;;2.65;;
47349;SDS011;33088;51.982;5.872;2023-04-01T08:22:23;3.03;;;2.58;;
47349;SDS011;33088;51.982;5.872;2023-04-01T08:24:58;3.53;;;2.20;;
47349;SDS011;33088;51.982;5.872;2023-04-01T08:30:35;2.00;;;1.33;;
47349;SDS011;33088;51.982;5.872;2023-04-01T08:33:24;1.40;;;1.30;;
47349;SDS011;33088;51.982;5.872;2023-04-01T08:38:36;1.80;;;1.40;;
47349;SDS011;33088;51.982;5.872;2023-04-01T09:01:51;2.25;;;1.90;;
47349;SDS011;33088;51.982;5.872;2023-04-01T09:07:59;1.88;;;1.77;;
47349;SDS011;33088;51.982;5.872;2023-04-01T09:29:30;2.20;;;1.92;;
47349;SDS011;33088;51.982;5.872;2023-04-01T09:32:30;2.83;;;2.22;;
47349;SDS011;33088;51.982;5.872;2023-04-01T09:35:35;4.57;;;2.50;;
47349;SDS011;33088;51.982;5.872;2023-04-01T09:44:12;3.65;;;2.42;;
47349;SDS011;33088;51.982;5.872;2023-04-01T09:52:44;3.65;;;2.60;;
47349;SDS011;33088;51.982;5.872;2023-04-01T10:07:18;3.53;;;3.08;;
47349;SDS011;33088;51.982;5.872;2023-04-01T10:16:12;4.75;;;3.80;;
47349;SDS011;33088;51.982;5.872;2023-04-01T10:19:10;5.05;;;3.80;;
47349;SDS011;33088;51.982;5.872;2023-04-01T10:34:22;9.85;;;6.45;;
47349;SDS011;33088;51.982;5.872;2023-04-01T10:46:27;9.00;;;8.07;;
47349;SDS011;33088;51.982;5.872;2023-04-01T10:52:03;9.75;;;8.38;;
47349;SDS011;33088;51.982;5.872;2023-04-01T11:04:15;13.88;;;9.45;;
47349;SDS011;33088;51.982;5.872;2023-04-01T11:13:17;9.75;;;8.18;;
47349;SDS011;33088;51.982;5.872;2023-04-01T11:15:37;10.60;;;8.93;;
47349;SDS011;33088;51.982;5.872;2023-04-01T11:18:41;11.40;;;8.23;;
47349;SDS011;33088;51.982;5.872;2023-04-01T11:21:30;9.48;;;7.72;;
47349;SDS011;33088;51.982;5.872;2023-04-01T11:24:12;10.23;;;7.93;;
47349;SDS011;33088;51.982;5.872;2023-04-01T11:40:51;2.67;;;2.47;;
47349;SDS011;33088;51.982;5.872;2023-04-01T11:46:49;3.13;;;2.83;;
47349;SDS011;33088;51.982;5.872;2023-04-01T11:58:12;3.33;;;2.72;;
47349;SDS011;33088;51.982;5.872;2023-04-01T12:06:40;2.97;;;2.10;;
47349;SDS011;33088;51.982;5.872;2023-04-01T12:30:46;3.45;;;2.53;;
47349;SDS011;33088;51.982;5.872;2023-04-01T12:47:13;3.55;;;2.95;;
47349;SDS011;33088;51.982;5.872;2023-04-01T12:55:40;4.88;;;3.00;;
47349;SDS011;33088;51.982;5.872;2023-04-01T13:00:41;3.90;;;3.60;;
47349;SDS011;33088;51.982;5.872;2023-04-01T13:11:31;5.32;;;3.50;;
47349;SDS011;33088;51.982;5.872;2023-04-01T13:19:52;4.32;;;3.72;;
47349;SDS011;33088;51.982;5.872;2023-04-01T13:28:23;4.38;;;3.45;;
47349;SDS011;33088;51.982;5.872;2023-04-01T13:31:05;5.95;;;3.30;;
47349;SDS011;33088;51.982;5.872;2023-04-01T13:39:11;3.90;;;3.42;;
47349;SDS011;33088;51.982;5.872;2023-04-01T13:41:55;3.03;;;2.78;;
47349;SDS011;33088;51.982;5.872;2023-04-01T13:44:54;3.30;;;3.00;;
47349;SDS011;33088;51.982;5.872;2023-04-01T14:10:14;9.02;;;7.97;;
47349;SDS011;33088;51.982;5.872;2023-04-01T14:20:43;2.40;;;2.20;;
47349;SDS011;33088;51.982;5.872;2023-04-01T14:48:57;3.75;;;2.88;;
47349;SDS011;33088;51.982;5.872;2023-04-01T14:51:43;4.10;;;3.70;;
47349;SDS011;33088;51.982;5.872;2023-04-01T14:56:43;7.63;;;6.88;;
47349;SDS011;33088;51.982;5.872;2023-04-01T15:01:58;3.28;;;2.70;;
47349;SDS011;33088;51.982;5.872;2023-04-01T15:23:45;4.18;;;3.75;;
47349;SDS011;33088;51.982;5.872;2023-04-01T15:26:25;4.13;;;3.72;;
47349;SDS011;33088;51.982;5.872;2023-04-01T15:34:26;6.35;;;4.70;;
47349;SDS011;33088;51.982;5.872;2023-04-01T15:37:01;8.90;;;6.20;;
47349;SDS011;33088;51.982;5.872;2023-04-01T15:44:45;6.93;;;5.65;;
47349;SDS011;33088;51.982;5.872;2023-04-01T15:52:55;7.15;;;6.43;;
47349;SDS011;33088;51.982;5.872;2023-04-01T15:55:59;7.50;;;6.45;;
47349;SDS011;33088;51.982;5.872;2023-04-01T16:03:44;6.45;;;5.85;;
47349;SDS011;33088;51.982;5.872;2023-04-01T16:09:31;6.53;;;5.82;;
47349;SDS011;33088;51.982;5.872;2023-04-01T16:20:51;6.43;;;5.80;;
47349;SDS011;33088;51.982;5.872;2023-04-01T16:29:24;6.13;;;5.53;;
47349;SDS011;33088;51.982;5.872;2023-04-01T16:31:43;7.93;;;6.25;;
47349;SDS011;33088;51.982;5.872;2023-04-01T16:37:07;6.72;;;6.00;;
47349;SDS011;33088;51.982;5.872;2023-04-01T16:39:46;7.07;;;6.13;;
47349;SDS011;33088;51.982;5.872;2023-04-01T16:42:25;9.60;;;6.82;;
47349;SDS011;33088;51.982;5.872;2023-04-01T16:45:15;6.20;;;5.60;;
47349;SDS011;33088;51.982;5.872;2023-04-01T16:48:15;6.47;;;5.50;;
47349;SDS011;33088;51.982;5.872;2023-04-01T16:50:51;5.93;;;5.35;;
47349;SDS011;33088;51.982;5.872;2023-04-01T16:53:40;6.23;;;5.63;;
47349;SDS011;33088;51.982;5.872;2023-04-01T16:56:27;5.63;;;5.13;;
47349;SDS011;33088;51.982;5.872;2023-04-01T17:04:23;7.97;;;6.00;;
47349;SDS011;33088;51.982;5.872;2023-04-01T17:07:10;6.72;;;6.13;;
47349;SDS011;33088;51.982;5.872;2023-04-01T17:20:32;7.30;;;6.53;;
47349;SDS011;33088;51.982;5.872;2023-04-01T17:25:48;8.25;;;6.60;;
47349;SDS011;33088;51.982;5.872;2023-04-01T17:37:00;7.57;;;6.88;;
47349;SDS011;33088;51.982;5.872;2023-04-01T17:39:46;7.53;;;6.82;;
47349;SDS011;33088;51.982;5.872;2023-04-01T17:45:04;7.75;;;6.95;;
47349;SDS011;33088;51.982;5.872;2023-04-01T17:48:01;7.95;;;6.85;;
47349;SDS011;33088;51.982;5.872;2023-04-01T17:50:46;7.78;;;6.95;;
47349;SDS011;33088;51.982;5.872;2023-04-01T17:59:13;7.75;;;6.88;;
47349;SDS011;33088;51.982;5.872;2023-04-01T18:01:51;7.72;;;6.95;;
47349;SDS011;33088;51.982;5.872;2023-04-01T18:07:18;7.82;;;6.95;;
47349;SDS011;33088;51.982;5.872;2023-04-01T18:26:46;8.85;;;7.97;;
47349;SDS011;33088;51.982;5.872;2023-04-01T18:31:48;9.55;;;8.13;;
47349;SDS011;33088;51.982;5.872;2023-04-01T18:34:20;9.30;;;8.10;;
47349;SDS011;33088;51.982;5.872;2023-04-01T18:37:38;10.00;;;8.32;;
47349;SDS011;33088;51.982;5.872;2023-04-01T18:46:26;13.93;;;10.25;;
47349;SDS011;33088;51.982;5.872;2023-04-01T18:52:08;10.45;;;9.40;;
47349;SDS011;33088;51.982;5.872;2023-04-01T18:57:25;13.65;;;11.20;;
47349;SDS011;33088;51.982;5.872;2023-04-01T19:00:13;13.48;;;11.52;;
47349;SDS011;33088;51.982;5.872;2023-04-01T19:02:45;13.30;;;10.60;;
47349;SDS011;33088;51.982;5.872;2023-04-01T19:05:19;11.30;;;10.13;;
47349;SDS011;33088;51.982;5.872;2023-04-01T19:07:55;13.02;;;11.15;;
47349;SDS011;33088;51.982;5.872;2023-04-01T19:10:37;11.13;;;10.02;;
47349;SDS011;33088;51.982;5.872;2023-04-01T19:16:37;10.93;;;9.82;;
47349;SDS011;33088;51.982;5.872;2023-04-01T19:21:47;11.15;;;9.57;;
47349;SDS011;33088;51.982;5.872;2023-04-01T19:32:49;13.07;;;10.73;;
47349;SDS011;33088;51.982;5.872;2023-04-01T19:38:15;13.25;;;11.88;;
47349;SDS011;33088;51.982;5.872;2023-04-01T19:46:48;14.00;;;11.65;;
47349;SDS011;33088;51.982;5.872;2023-04-01T19:52:23;12.10;;;10.23;;
47349;SDS011;33088;51.982;5.872;2023-04-01T19:55:13;11.00;;;9.90;;
47349;SDS011;33088;51.982;5.872;2023-04-01T20:11:21;14.50;;;12.15;;
47349;SDS011;33088;51.982;5.872;2023-04-01T20:13:35;13.32;;;11.93;;
47349;SDS011;33088;51.982;5.872;2023-04-01T20:16:06;14.75;;;13.13;;
47349;SDS011;33088;51.982;5.872;2023-04-01T20:26:24;15.93;;;13.40;;
47349;SDS011;33088;51.982;5.872;2023-04-01T20:31:51;16.27;;;13.57;;
47349;SDS011;33088;51.982;5.872;2023-04-01T20:35:33;14.48;;;12.10;;
47349;SDS011;33088;51.982;5.872;2023-04-01T20:37:42;15.30;;;13.27;;
47349;SDS011;33088;51.982;5.872;2023-04-01T20:40:37;14.02;;;12.52;;
47349;SDS011;33088;51.982;5.872;2023-04-01T20:46:16;16.08;;;14.38;;
47349;SDS011;33088;51.982;5.872;2023-04-01T20:51:26;17.92;;;14.63;;
47349;SDS011;33088;51.982;5.872;2023-04-01T20:54:17;19.38;;;16.38;;
47349;SDS011;33088;51.982;5.872;2023-04-01T20:56:52;21.15;;;16.30;;
47349;SDS011;33088;51.982;5.872;2023-04-01T20:59:25;20.67;;;16.77;;
47349;SDS011;33088;51.982;5.872;2023-04-01T21:02:56;17.90;;;14.95;;
47349;SDS011;33088;51.982;5.872;2023-04-01T21:19:03;19.47;;;15.50;;
47349;SDS011;33088;51.982;5.872;2023-04-01T21:22:05;19.58;;;15.55;;
47349;SDS011;33088;51.982;5.872;2023-04-01T21:24:53;17.10;;;15.27;;
47349;SDS011;33088;51.982;5.872;2023-04-01T21:36:11;15.88;;;14.13;;
47349;SDS011;33088;51.982;5.872;2023-04-01T21:38:52;15.10;;;13.57;;
47349;SDS011;33088;51.982;5.872;2023-04-01T21:41:25;14.13;;;12.30;;
47349;SDS011;33088;51.982;5.872;2023-04-01T21:47:01;14.50;;;12.90;;
47349;SDS011;33088;51.982;5.872;2023-04-01T21:58:30;15.98;;;14.13;;
47349;SDS011;33088;51.982;5.872;2023-04-01T22:01:25;16.42;;;14.10;;
47349;SDS011;33088;51.982;5.872;2023-04-01T22:07:19;16.35;;;10.88;;
47349;SDS011;33088;51.982;5.872;2023-04-01T22:12:31;14.30;;;11.95;;
47349;SDS011;33088;51.982;5.872;2023-04-01T22:15:21;11.55;;;10.27;;
47349;SDS011;33088;51.982;5.872;2023-04-01T22:17:59;12.45;;;10.80;;
47349;SDS011;33088;51.982;5.872;2023-04-01T22:20:39;13.25;;;11.85;;
47349;SDS011;33088;51.982;5.872;2023-04-01T22:29:07;13.85;;;12.10;;
47349;SDS011;33088;51.982;5.872;2023-04-01T22:42:57;14.80;;;12.98;;
47349;SDS011;33088;51.982;5.872;2023-04-01T22:45:39;15.35;;;13.13;;
47349;SDS011;33088;51.982;5.872;2023-04-01T22:48:24;13.40;;;11.70;;
47349;SDS011;33088;51.982;5.872;2023-04-01T22:51:11;15.35;;;12.15;;
47349;SDS011;33088;51.982;5.872;2023-04-01T22:53:48;13.68;;;11.75;;
47349;SDS011;33088;51.982;5.872;2023-04-01T22:56:38;12.73;;;10.90;;
47349;SDS011;33088;51.982;5.872;2023-04-01T23:01:49;12.50;;;11.10;;
47349;SDS011;33088;51.982;5.872;2023-04-01T23:04:21;14.55;;;12.95;;
47349;SDS011;33088;51.982;5.872;2023-04-01T23:06:57;13.40;;;11.30;;
47349;SDS011;33088;51.982;5.872;2023-04-01T23:09:30;14.32;;;12.35;;
47349;SDS011;33088;51.982;5.872;2023-04-01T23:11:59;13.15;;;11.57;;
47349;SDS011;33088;51.982;5.872;2023-04-01T23:14:41;14.55;;;13.05;;
47349;SDS011;33088;51.982;5.872;2023-04-01T23:19:59;17.63;;;14.27;;
47349;SDS011;33088;51.982;5.872;2023-04-01T23:22:43;19.00;;;15.18;;
47349;SDS011;33088;51.982;5.872;2023-04-01T23:25:24;20.30;;;15.40;;
47349;SDS011;33088;51.982;5.872;2023-04-01T23:33:20;22.05;;;16.20;;
47349;SDS011;33088;51.982;5.872;2023-04-01T23:35:55;21.65;;;16.70;;
47349;SDS011;33088;51.982;5.872;2023-04-01T23:38:29;22.90;;;17.38;;
47349;SDS011;33088;51.982;5.872;2023-04-01T23:40:57;23.05;;;18.88;;
47349;SDS011;33088;51.982;5.872;2023-04-01T23:43:33;24.23;;;19.10;;
47349;SDS011;33088;51.982;5.872;2023-04-01T23:46:02;19.00;;;15.98;;
47349;SDS011;33088;51.982;5.872;2023-04-01T23:48:40;18.45;;;15.23;;
47349;SDS011;33088;51.982;5.872;2023-04-01T23:51:17;18.13;;;13.73;;
47349;SDS011;33088;51.982;5.872;2023-04-01T23:53:46;15.35;;;12.60;;
47349;SDS011;33088;51.982;5.872;2023-04-01T23:56:16;17.35;;;14.68;;
